Weather at Tenerife South Airport

Public forecast

Using degrees Celsius for public forecast. Weather courtesy of forecast.io.

Current aviation weather report (METAR) for Tenerife South Airport

Retrieved 2020/11/28 22:30 UTC (10 minutes ago):

GCTS 282230Z 33006KT 9999 FEW025 18/12 Q1016 NOSIG

Aviation forecast (TAF) for Tenerife South Airport

Retrieved 2020/11/28 21:27 UTC (1 hour ago):

TAF GCTS 282000Z 2821/2921 34005KT 9999 SCT035 TX22/2914Z TN17/2907Z PROB40 TEMPO 2906/2915 4500 RA